Time;durP1;ratioP1;P1;durP2;ratioP2;P2;SDS_P1;SDS_P2;PMS_P1;PMS_P2;Temp;Humidity;BMP_temperature;BMP_pressure;BME280_temperature;BME280_humidity;BME280_pressure;Samples;Min_cycle;Max_cycle;Signal;HPM_P1;HPM_P2
2023/08/12 00:01:35;;;;;;;12.70;7.65;;;18.70;99.90;;;;;;5054386;28;20458;-68
2023/08/12 00:04:00;;;;;;;11.90;7.97;;;18.70;99.90;;;;;;5054127;28;20454;-69
2023/08/12 00:06:26;;;;;;;15.18;7.95;;;18.60;99.90;;;;;;5054163;28;20029;-69
2023/08/12 00:08:52;;;;;;;11.45;7.40;;;18.60;99.90;;;;;;5053785;28;20458;-69
2023/08/12 00:11:17;;;;;;;10.18;7.47;;;18.60;99.90;;;;;;5054000;28;20025;-68
2023/08/12 00:13:43;;;;;;;13.95;7.95;;;18.50;99.90;;;;;;5054525;28;20028;-68
2023/08/12 00:16:08;;;;;;;14.77;8.15;;;18.50;99.90;;;;;;5053922;28;20021;-69
2023/08/12 00:18:36;;;;;;;17.10;8.18;;;18.50;99.90;;;;;;5053532;28;20107;-69
2023/08/12 00:21:09;;;;;;;15.07;7.80;;;18.40;99.90;;;;;;5053502;28;20472;-69
2023/08/12 00:23:40;;;;;;;16.85;8.60;;;18.40;99.90;;;;;;5054150;28;20028;-68
2023/08/12 00:26:07;;;;;;;14.23;8.60;;;18.40;99.90;;;;;;5053812;28;20028;-69
2023/08/12 00:28:33;;;;;;;12.38;8.57;;;18.30;99.90;;;;;;5053740;28;20036;-69
2023/08/12 00:30:59;;;;;;;14.23;9.00;;;18.30;99.90;;;;;;5053488;28;20495;-68
2023/08/12 00:33:24;;;;;;;13.60;8.50;;;18.30;99.90;;;;;;5053496;28;20053;-69
2023/08/12 00:35:50;;;;;;;12.68;8.20;;;18.00;99.90;;;;;;5053936;28;20349;-68
2023/08/12 00:38:16;;;;;;;17.80;9.27;;;18.00;99.90;;;;;;5053694;28;20029;-69
2023/08/12 00:40:41;;;;;;;18.08;8.90;;;17.90;99.90;;;;;;5053556;28;20029;-68
2023/08/12 00:43:09;;;;;;;12.48;8.90;;;17.90;99.90;;;;;;5053925;28;20028;-68
2023/08/12 00:45:34;;;;;;;12.23;8.57;;;17.90;99.90;;;;;;5053734;28;20031;-69
2023/08/12 00:48:00;;;;;;;18.25;9.13;;;18.00;99.90;;;;;;5053370;28;20424;-69
2023/08/12 00:50:26;;;;;;;15.98;8.65;;;18.00;99.90;;;;;;5053855;28;20041;-69
2023/08/12 00:52:52;;;;;;;16.08;9.00;;;17.90;99.90;;;;;;5053519;28;20052;-69
2023/08/12 00:55:18;;;;;;;16.23;9.02;;;17.80;99.90;;;;;;5053400;28;20025;-69
2023/08/12 00:57:44;;;;;;;13.25;8.68;;;17.70;99.90;;;;;;5054239;28;20024;-68
2023/08/12 01:00:10;;;;;;;14.02;9.50;;;17.60;99.90;;;;;;5053551;28;20393;-68
2023/08/12 01:02:36;;;;;;;16.20;8.45;;;17.60;99.90;;;;;;5053018;28;20353;-69
2023/08/12 01:05:02;;;;;;;16.60;8.85;;;17.60;99.90;;;;;;5053394;28;20025;-69
2023/08/12 01:07:27;;;;;;;13.43;9.05;;;17.60;99.90;;;;;;5053816;28;20029;-68
2023/08/12 01:09:53;;;;;;;14.95;9.40;;;17.70;99.90;;;;;;5057488;28;20029;-69
2023/08/12 01:12:28;;;;;;;17.58;8.60;;;17.60;99.90;;;;;;5057391;28;20365;-68
2023/08/12 01:15:08;;;;;;;15.00;8.68;;;17.70;99.90;;;;;;5057702;28;20435;-68
2023/08/12 01:17:36;;;;;;;14.63;8.77;;;17.70;99.90;;;;;;5057576;28;20096;-69
2023/08/12 01:20:08;;;;;;;16.15;9.25;;;17.70;99.90;;;;;;5057665;28;20142;-68
2023/08/12 01:22:39;;;;;;;13.88;8.98;;;17.70;99.90;;;;;;5057532;28;20373;-69
2023/08/12 01:25:05;;;;;;;16.67;9.30;;;17.60;99.90;;;;;;5057939;28;20020;-69
2023/08/12 01:27:31;;;;;;;14.77;9.00;;;17.60;99.90;;;;;;5055930;28;20542;-69
2023/08/12 01:29:57;;;;;;;15.93;9.05;;;17.60;99.90;;;;;;5057064;28;20039;-68
2023/08/12 01:32:30;;;;;;;12.15;8.35;;;17.60;99.90;;;;;;5056816;28;20029;-68
2023/08/12 01:35:05;;;;;;;15.15;8.68;;;17.50;99.90;;;;;;5057595;28;20079;-69
2023/08/12 01:37:32;;;;;;;14.40;8.75;;;17.50;99.90;;;;;;5057236;28;20024;-69
2023/08/12 01:40:04;;;;;;;15.25;9.27;;;17.50;99.90;;;;;;5056869;28;20028;-69
2023/08/12 01:42:32;;;;;;;16.27;8.60;;;17.40;99.90;;;;;;5057402;28;20071;-69
2023/08/12 01:44:58;;;;;;;14.00;8.55;;;17.40;99.90;;;;;;5056821;28;20488;-69
2023/08/12 01:47:23;;;;;;;15.35;9.18;;;17.30;99.90;;;;;;5056615;28;20044;-69
2023/08/12 01:49:49;;;;;;;13.65;9.10;;;17.40;99.90;;;;;;5056519;28;20056;-69
2023/08/12 01:52:15;;;;;;;23.10;9.35;;;17.30;99.90;;;;;;5056635;28;20021;-69
2023/08/12 01:54:41;;;;;;;13.38;8.65;;;17.30;99.90;;;;;;5056855;28;20025;-69
2023/08/12 01:57:07;;;;;;;13.43;8.55;;;17.30;99.90;;;;;;5056562;28;20028;-69
2023/08/12 01:59:34;;;;;;;13.48;8.88;;;17.30;99.90;;;;;;5057205;28;20404;-69
2023/08/12 02:01:59;;;;;;;15.70;9.20;;;17.30;99.90;;;;;;5056529;28;20515;-69
2023/08/12 02:04:26;;;;;;;15.40;9.40;;;17.30;99.90;;;;;;5056476;28;20052;-69
2023/08/12 02:06:52;;;;;;;16.20;9.25;;;17.20;99.90;;;;;;5056671;28;20359;-69
2023/08/12 02:09:18;;;;;;;11.95;8.05;;;17.20;99.90;;;;;;5056400;28;20108;-69
2023/08/12 02:11:44;;;;;;;14.20;9.65;;;17.20;99.90;;;;;;5056413;28;20048;-68
2023/08/12 02:14:09;;;;;;;22.85;9.85;;;17.10;99.90;;;;;;5056799;28;20021;-68
2023/08/12 02:16:35;;;;;;;13.82;9.73;;;17.10;99.90;;;;;;5056510;28;20060;-69
2023/08/12 02:19:01;;;;;;;19.60;10.05;;;17.10;99.90;;;;;;5054448;28;20033;-69
2023/08/12 02:21:26;;;;;;;13.77;9.32;;;17.00;99.90;;;;;;5055916;28;20397;-69
2023/08/12 02:23:52;;;;;;;14.05;9.00;;;17.00;99.90;;;;;;5056375;28;20023;-68
2023/08/12 02:26:18;;;;;;;17.35;8.90;;;17.10;99.90;;;;;;5056127;28;20396;-69
2023/08/12 02:28:43;;;;;;;21.23;8.98;;;17.10;99.90;;;;;;5056037;28;20112;-69
2023/08/12 02:31:09;;;;;;;12.82;8.98;;;17.10;99.90;;;;;;5056054;28;20017;-69
2023/08/12 02:33:34;;;;;;;14.23;8.73;;;17.10;99.90;;;;;;5056170;28;20020;-69
2023/08/12 02:36:00;;;;;;;17.65;9.32;;;17.10;99.90;;;;;;5056497;28;20021;-68
2023/08/12 02:38:26;;;;;;;13.98;8.52;;;17.10;99.90;;;;;;5055837;28;20057;-69
2023/08/12 02:40:51;;;;;;;11.18;8.10;;;17.10;99.90;;;;;;5055699;28;20033;-69
2023/08/12 02:43:17;;;;;;;12.15;8.15;;;17.10;99.90;;;;;;5055721;28;20025;-69
2023/08/12 02:45:43;;;;;;;13.82;8.30;;;17.10;99.90;;;;;;5054971;28;20048;-68
2023/08/12 02:48:12;;;;;;;15.43;9.07;;;17.10;99.90;;;;;;5055554;28;20021;-69
2023/08/12 02:50:38;;;;;;;13.80;8.30;;;17.00;99.90;;;;;;5056013;28;20033;-69
2023/08/12 02:53:04;;;;;;;14.90;8.40;;;17.00;99.90;;;;;;5055842;28;20021;-69
2023/08/12 02:55:31;;;;;;;12.65;8.32;;;17.00;99.90;;;;;;5055585;28;20029;-69
2023/08/12 02:57:58;;;;;;;12.98;8.63;;;16.90;99.90;;;;;;5056299;28;20079;-69
2023/08/12 03:00:23;;;;;;;11.70;8.13;;;16.90;99.90;;;;;;5055624;28;20029;-68
2023/08/12 03:02:49;;;;;;;13.45;8.45;;;16.90;99.90;;;;;;5055454;28;20021;-69
2023/08/12 03:05:15;;;;;;;14.43;8.60;;;16.90;99.90;;;;;;5055453;28;20021;-69
2023/08/12 03:07:40;;;;;;;14.80;8.52;;;16.90;99.90;;;;;;5055533;28;20056;-69
2023/08/12 03:10:07;;;;;;;15.35;9.10;;;16.90;99.90;;;;;;5055292;28;20064;-69
2023/08/12 03:12:32;;;;;;;15.38;8.85;;;16.90;99.90;;;;;;5055450;28;20032;-68
2023/08/12 03:14:58;;;;;;;12.85;7.93;;;16.90;99.90;;;;;;5055197;28;20149;-69
2023/08/12 03:17:23;;;;;;;13.57;8.40;;;16.90;99.90;;;;;;5055101;28;20070;-68
2023/08/12 03:19:49;;;;;;;13.35;8.05;;;16.80;99.90;;;;;;5055105;28;20029;-68
2023/08/12 03:22:15;;;;;;;11.85;8.38;;;16.90;99.90;;;;;;5055789;28;20029;-68
2023/08/12 03:24:41;;;;;;;17.33;8.57;;;16.90;99.90;;;;;;5055523;28;20349;-69
2023/08/12 03:27:06;;;;;;;10.82;7.65;;;16.80;99.90;;;;;;5054946;28;20021;-69
2023/08/12 03:29:32;;;;;;;10.30;7.40;;;16.80;99.90;;;;;;5054914;28;20021;-69
2023/08/12 03:31:58;;;;;;;11.57;7.97;;;16.80;99.90;;;;;;5053988;28;20025;-68
2023/08/12 03:34:23;;;;;;;11.88;7.65;;;16.80;99.90;;;;;;5054766;28;20100;-69
2023/08/12 03:36:50;;;;;;;13.35;7.50;;;16.80;99.90;;;;;;5055015;28;20020;-69
2023/08/12 03:39:16;;;;;;;12.00;7.88;;;16.80;99.90;;;;;;5054831;28;20029;-68
2023/08/12 03:41:41;;;;;;;13.43;7.80;;;16.60;99.90;;;;;;5055123;28;20021;-69
2023/08/12 03:44:07;;;;;;;12.10;7.88;;;16.70;99.90;;;;;;5054615;28;20071;-69
2023/08/12 03:46:33;;;;;;;11.48;7.03;;;16.70;99.90;;;;;;5054553;28;20031;-68
2023/08/12 03:48:58;;;;;;;11.93;7.05;;;16.70;99.90;;;;;;5055008;28;20052;-68
2023/08/12 03:51:24;;;;;;;10.43;7.13;;;16.70;99.90;;;;;;5054803;28;20453;-69
2023/08/12 03:53:49;;;;;;;13.98;7.95;;;16.70;99.90;;;;;;5054393;28;20070;-68
2023/08/12 03:56:16;;;;;;;14.18;7.18;;;16.80;99.90;;;;;;5054400;28;20335;-69
2023/08/12 03:58:42;;;;;;;11.98;7.97;;;16.80;99.90;;;;;;5054735;28;20148;-68
2023/08/12 04:01:08;;;;;;;12.00;7.05;;;16.70;99.90;;;;;;5054304;28;20025;-69
2023/08/12 04:03:34;;;;;;;15.20;8.23;;;16.80;99.90;;;;;;5054454;28;20025;-69
2023/08/12 04:05:59;;;;;;;11.77;7.60;;;16.80;99.90;;;;;;5054433;28;20357;-69
2023/08/12 04:08:25;;;;;;;15.18;8.43;;;16.80;99.90;;;;;;5054221;28;20048;-69
2023/08/12 04:10:51;;;;;;;14.95;8.00;;;16.80;99.90;;;;;;5054389;28;20029;-69
2023/08/12 04:13:17;;;;;;;10.18;7.30;;;16.80;99.90;;;;;;5053797;28;20063;-68
2023/08/12 04:15:48;;;;;;;11.65;7.05;;;16.80;99.90;;;;;;5054125;28;20053;-69
2023/08/12 04:18:13;;;;;;;9.27;6.68;;;16.80;99.90;;;;;;5054251;28;20017;-69
2023/08/12 04:20:39;;;;;;;10.38;7.15;;;16.80;99.90;;;;;;5053905;28;20109;-69
2023/08/12 04:23:05;;;;;;;11.68;6.57;;;16.70;99.90;;;;;;5054486;28;20430;-68
2023/08/12 04:25:30;;;;;;;11.48;7.28;;;16.60;99.90;;;;;;5053897;28;20024;-68
2023/08/12 04:27:56;;;;;;;13.95;7.25;;;16.60;99.90;;;;;;5054132;28;20029;-68
2023/08/12 04:30:22;;;;;;;16.02;7.97;;;16.60;99.90;;;;;;5054101;28;20066;-68
2023/08/12 04:32:47;;;;;;;13.93;7.45;;;16.70;99.90;;;;;;5053807;28;20134;-69
2023/08/12 04:35:13;;;;;;;13.77;7.93;;;16.70;99.90;;;;;;5053754;28;20021;-69
2023/08/12 04:37:38;;;;;;;12.43;7.55;;;16.70;99.90;;;;;;5053800;28;20029;-68
2023/08/12 04:40:05;;;;;;;12.25;7.78;;;16.80;99.90;;;;;;5053642;28;20025;-69
2023/08/12 04:42:31;;;;;;;13.88;7.22;;;16.80;99.90;;;;;;5053271;28;20473;-69
2023/08/12 04:44:56;;;;;;;12.07;7.68;;;16.90;99.90;;;;;;5053588;28;20465;-69
2023/08/12 04:47:22;;;;;;;15.52;7.53;;;17.00;99.90;;;;;;5054187;28;20029;-69
2023/08/12 04:49:48;;;;;;;10.57;7.28;;;17.00;99.90;;;;;;5053463;28;20057;-68
2023/08/12 04:52:13;;;;;;;18.48;7.10;;;17.10;99.90;;;;;;5054106;28;20493;-68
2023/08/12 04:54:39;;;;;;;12.57;7.00;;;17.10;99.90;;;;;;5053572;28;20017;-68
2023/08/12 04:57:05;;;;;;;10.07;6.97;;;17.10;99.90;;;;;;5053831;28;20021;-69
2023/08/12 04:59:31;;;;;;;9.75;7.05;;;17.20;99.90;;;;;;5053395;28;20029;-68
2023/08/12 05:01:56;;;;;;;9.55;6.68;;;17.20;99.90;;;;;;5054001;28;20039;-68
2023/08/12 05:04:22;;;;;;;11.43;6.93;;;17.30;99.90;;;;;;5053425;28;20052;-68
2023/08/12 05:06:48;;;;;;;12.35;7.88;;;17.30;99.90;;;;;;5053737;28;20017;-69
2023/08/12 05:09:14;;;;;;;18.88;7.63;;;17.20;99.90;;;;;;5053456;28;20060;-69
2023/08/12 05:11:40;;;;;;;10.60;7.10;;;17.30;99.90;;;;;;5053954;28;20021;-69
2023/08/12 05:14:06;;;;;;;14.45;6.55;;;17.20;99.90;;;;;;5053442;28;20031;-69
2023/08/12 05:16:31;;;;;;;17.05;7.47;;;17.20;99.90;;;;;;5053850;28;20115;-68
2023/08/12 05:18:57;;;;;;;11.18;6.78;;;17.20;99.90;;;;;;5053723;28;20457;-69
2023/08/12 05:21:23;;;;;;;13.18;7.00;;;17.30;99.90;;;;;;5053292;28;20104;-69
2023/08/12 05:23:48;;;;;;;11.30;7.03;;;17.30;99.90;;;;;;5053257;28;20078;-68
2023/08/12 05:26:14;;;;;;;11.40;7.22;;;17.30;99.90;;;;;;5053297;28;20021;-69
2023/08/12 05:28:40;;;;;;;12.93;7.15;;;17.30;99.90;;;;;;5052766;28;20357;-69
2023/08/12 05:31:05;;;;;;;12.27;7.07;;;17.30;99.90;;;;;;5053044;28;20028;-68
2023/08/12 05:33:31;;;;;;;11.10;7.22;;;17.30;99.90;;;;;;5053276;28;20056;-69
2023/08/12 05:35:57;;;;;;;12.93;7.10;;;17.20;99.90;;;;;;5053511;28;20023;-69
2023/08/12 05:38:22;;;;;;;14.85;7.22;;;17.20;99.90;;;;;;5053289;28;20024;-69
2023/08/12 05:40:48;;;;;;;15.00;7.28;;;17.10;99.90;;;;;;5053129;28;20342;-68
2023/08/12 05:43:14;;;;;;;11.18;6.95;;;17.00;99.90;;;;;;5053509;28;20364;-68
2023/08/12 05:45:39;;;;;;;12.75;7.88;;;17.10;99.90;;;;;;5053065;28;20155;-68
2023/08/12 05:48:05;;;;;;;14.25;6.68;;;17.10;99.90;;;;;;5052933;28;20025;-68
2023/08/12 05:50:31;;;;;;;12.98;7.07;;;17.20;99.90;;;;;;5053092;28;20057;-68
2023/08/12 05:52:56;;;;;;;11.00;6.65;;;17.30;99.90;;;;;;5053051;28;20048;-69
2023/08/12 05:55:22;;;;;;;10.82;7.32;;;17.30;99.90;;;;;;5055110;28;20339;-68
2023/08/12 05:57:48;;;;;;;14.50;7.55;;;17.40;99.90;;;;;;5056728;28;20027;-69
2023/08/12 06:00:14;;;;;;;12.50;7.50;;;17.50;99.90;;;;;;5056584;28;20507;-69
2023/08/12 06:02:39;;;;;;;12.63;6.75;;;17.60;99.90;;;;;;5056803;28;20064;-69
2023/08/12 06:05:05;;;;;;;9.68;6.72;;;17.60;99.90;;;;;;5056872;28;20025;-69
2023/08/12 06:07:31;;;;;;;9.55;6.45;;;17.70;99.90;;;;;;5056564;28;20025;-69
2023/08/12 06:09:56;;;;;;;12.40;6.88;;;17.70;99.90;;;;;;5056564;28;20033;-68
2023/08/12 06:12:22;;;;;;;14.45;7.80;;;17.90;99.90;;;;;;5055151;28;20021;-69
2023/08/12 06:14:48;;;;;;;11.18;7.28;;;18.00;99.90;;;;;;5056636;28;20028;-69
2023/08/12 06:17:13;;;;;;;12.35;8.07;;;18.10;99.90;;;;;;5055954;28;20021;-69
2023/08/12 06:19:39;;;;;;;13.10;7.10;;;18.30;99.90;;;;;;5056454;28;20029;-69
2023/08/12 06:22:05;;;;;;;14.88;7.32;;;18.40;99.90;;;;;;5056263;28;20055;-69
2023/08/12 06:24:31;;;;;;;15.65;7.72;;;18.50;99.90;;;;;;5056190;28;20052;-69
2023/08/12 06:26:57;;;;;;;10.00;7.07;;;18.50;99.90;;;;;;5055951;28;20029;-68
2023/08/12 06:29:22;;;;;;;8.95;6.50;;;18.50;99.90;;;;;;5056123;28;20147;-68
2023/08/12 06:31:48;;;;;;;12.13;6.93;;;18.50;99.90;;;;;;5056195;28;20021;-68
2023/08/12 06:34:13;;;;;;;10.75;7.13;;;18.60;99.90;;;;;;5056371;28;20025;-68
2023/08/12 06:36:39;;;;;;;20.33;9.02;;;18.70;99.90;;;;;;5056121;28;20517;-68
2023/08/12 06:39:05;;;;;;;14.27;8.63;;;18.90;99.90;;;;;;5055945;28;20036;-69
2023/08/12 06:41:30;;;;;;;9.90;7.05;;;19.20;99.90;;;;;;5055995;28;20132;-69
2023/08/12 06:43:56;;;;;;;8.73;6.43;;;19.40;99.90;;;;;;5056204;28;20582;-69
2023/08/12 06:46:21;;;;;;;13.98;7.07;;;19.60;99.90;;;;;;5056407;28;20055;-68
2023/08/12 06:48:47;;;;;;;10.45;6.85;;;19.80;99.90;;;;;;5055604;28;20098;-68
2023/08/12 06:51:13;;;;;;;9.80;6.22;;;19.80;99.90;;;;;;5055797;28;20438;-68
2023/08/12 06:53:39;;;;;;;9.90;6.50;;;19.90;99.90;;;;;;5055710;28;20032;-69
2023/08/12 06:56:05;;;;;;;12.98;6.53;;;19.80;99.90;;;;;;5056240;28;20028;-67
2023/08/12 06:58:31;;;;;;;13.43;6.95;;;19.60;99.90;;;;;;5055940;28;20032;-68
2023/08/12 07:00:58;;;;;;;13.38;8.00;;;19.50;99.90;;;;;;5056007;28;20032;-69
2023/08/12 07:03:24;;;;;;;12.15;7.88;;;19.60;99.90;;;;;;5055778;28;20033;-69
2023/08/12 07:05:50;;;;;;;11.13;7.15;;;19.60;99.90;;;;;;5055545;28;20013;-69
2023/08/12 07:08:15;;;;;;;13.95;7.45;;;19.70;99.90;;;;;;5055231;28;20064;-69
2023/08/12 07:10:42;;;;;;;11.35;6.90;;;19.80;99.90;;;;;;5055637;28;20025;-69
2023/08/12 07:13:07;;;;;;;14.65;7.32;;;20.00;99.90;;;;;;5055399;28;20075;-69
2023/08/12 07:15:33;;;;;;;11.65;6.78;;;20.10;99.90;;;;;;5055306;28;20396;-69
2023/08/12 07:17:59;;;;;;;10.07;6.85;;;20.20;99.90;;;;;;5055204;28;20032;-69
2023/08/12 07:20:25;;;;;;;8.00;5.82;;;20.20;99.90;;;;;;5055187;28;20123;-70
2023/08/12 07:22:51;;;;;;;14.63;7.15;;;20.30;99.90;;;;;;5055221;28;20092;-69
2023/08/12 07:25:17;;;;;;;11.30;6.78;;;20.30;99.90;;;;;;5055694;28;20116;-69
2023/08/12 07:27:43;;;;;;;15.43;7.53;;;20.50;99.90;;;;;;5055538;28;20064;-70
2023/08/12 07:30:09;;;;;;;11.07;6.88;;;20.60;99.90;;;;;;5054707;28;20068;-68
2023/08/12 07:32:37;;;;;;;11.25;6.35;;;20.80;99.90;;;;;;5054937;28;20029;-68
2023/08/12 07:35:03;;;;;;;10.80;6.55;;;20.90;99.90;;;;;;5055084;28;20119;-68
2023/08/12 07:37:29;;;;;;;10.27;6.75;;;21.10;99.90;;;;;;5054708;28;20025;-68
2023/08/12 07:39:54;;;;;;;11.90;6.97;;;21.20;99.90;;;;;;5055271;28;20069;-69
2023/08/12 07:42:20;;;;;;;20.83;8.32;;;21.30;99.90;;;;;;5054763;28;20021;-68
2023/08/12 07:44:46;;;;;;;11.07;7.22;;;21.40;99.90;;;;;;5055009;28;20021;-68
2023/08/12 07:47:11;;;;;;;18.17;7.35;;;21.50;99.90;;;;;;5054569;28;20025;-69
2023/08/12 07:49:38;;;;;;;10.85;7.53;;;21.60;99.90;;;;;;5053956;28;20473;-68
2023/08/12 07:52:04;;;;;;;14.75;7.20;;;21.60;99.90;;;;;;5054519;28;20170;-69
2023/08/12 07:54:29;;;;;;;11.30;6.75;;;21.70;99.90;;;;;;5054325;28;20021;-68
2023/08/12 07:56:55;;;;;;;15.43;7.18;;;21.80;99.90;;;;;;5054632;28;20032;-68
2023/08/12 07:59:21;;;;;;;14.20;7.07;;;22.00;99.90;;;;;;5053090;28;20033;-69
2023/08/12 08:01:47;;;;;;;9.35;6.50;;;22.20;99.90;;;;;;5054180;28;20092;-69
2023/08/12 08:04:12;;;;;;;9.43;7.05;;;22.40;99.90;;;;;;5055154;28;20124;-69
2023/08/12 08:06:38;;;;;;;11.80;6.97;;;22.60;99.90;;;;;;5054512;28;20033;-70
2023/08/12 08:09:04;;;;;;;10.85;6.20;;;22.80;99.90;;;;;;5054421;28;20028;-69
2023/08/12 08:11:31;;;;;;;14.50;8.10;;;23.00;99.90;;;;;;5054291;28;20025;-69
2023/08/12 08:13:58;;;;;;;10.50;6.50;;;23.40;99.90;;;;;;5054449;28;20029;-69
2023/08/12 08:16:24;;;;;;;8.48;6.32;;;23.60;99.90;;;;;;5054257;28;20064;-70
2023/08/12 08:18:49;;;;;;;11.77;6.65;;;23.70;99.90;;;;;;5053711;28;20030;-69
2023/08/12 08:21:15;;;;;;;15.00;8.05;;;24.00;99.90;;;;;;5053557;28;20032;-69
2023/08/12 08:23:41;;;;;;;13.68;7.40;;;24.20;99.90;;;;;;5054027;28;20025;-69
2023/08/12 08:26:07;;;;;;;10.05;6.60;;;24.40;99.90;;;;;;5054008;28;20021;-69
2023/08/12 08:28:34;;;;;;;8.90;6.22;;;24.70;99.90;;;;;;5054060;28;20407;-69
2023/08/12 08:31:00;;;;;;;10.65;6.47;;;24.80;99.90;;;;;;5053696;28;20033;-69
2023/08/12 08:33:26;;;;;;;11.68;6.93;;;24.80;99.90;;;;;;5053965;28;20087;-68
2023/08/12 08:35:52;;;;;;;10.93;6.28;;;24.90;99.90;;;;;;5054201;28;20449;-67
2023/08/12 08:38:17;;;;;;;14.32;6.88;;;24.80;99.90;;;;;;5053861;28;20025;-68
2023/08/12 08:40:43;;;;;;;8.63;6.50;;;24.80;99.90;;;;;;5053251;28;20500;-68
2023/08/12 08:43:09;;;;;;;10.18;5.97;;;24.80;99.90;;;;;;5053565;28;20021;-68
2023/08/12 08:45:35;;;;;;;9.40;6.78;;;25.10;99.90;;;;;;5053423;28;20066;-68
2023/08/12 08:48:02;;;;;;;10.68;6.55;;;25.40;99.90;;;;;;5053171;28;20425;-67
2023/08/12 08:50:29;;;;;;;9.90;6.13;;;25.30;99.90;;;;;;5053748;28;20024;-68
2023/08/12 08:52:56;;;;;;;9.02;5.97;;;25.30;99.90;;;;;;5053397;28;20017;-68
2023/08/12 08:55:22;;;;;;;10.35;6.40;;;25.50;99.90;;;;;;5053976;28;20021;-68
2023/08/12 08:57:49;;;;;;;18.17;6.22;;;25.50;99.90;;;;;;5053606;28;20021;-68
2023/08/12 09:00:16;;;;;;;9.20;6.28;;;25.50;99.90;;;;;;5053725;28;20446;-68
2023/08/12 09:02:44;;;;;;;14.50;6.60;;;25.60;99.90;;;;;;5053381;28;20025;-69
2023/08/12 09:05:11;;;;;;;9.77;6.15;;;25.70;99.90;;;;;;5053383;28;20170;-68
2023/08/12 09:07:37;;;;;;;7.93;6.10;;;25.80;99.90;;;;;;5053436;28;20472;-67
2023/08/12 09:10:03;;;;;;;7.38;6.10;;;25.70;99.90;;;;;;5052959;28;20354;-68
2023/08/12 09:12:30;;;;;;;10.93;6.47;;;25.60;99.90;;;;;;5053326;28;20028;-69
2023/08/12 09:14:55;;;;;;;8.85;6.57;;;25.60;99.90;;;;;;5053638;28;20033;-69
2023/08/12 09:17:21;;;;;;;9.82;6.00;;;25.70;99.90;;;;;;5053175;28;20036;-69
2023/08/12 09:19:46;;;;;;;12.75;6.35;;;25.70;99.90;;;;;;5053166;28;20037;-69
2023/08/12 09:22:12;;;;;;;10.63;5.68;;;25.80;99.90;;;;;;5053194;28;20017;-69
2023/08/12 09:24:38;;;;;;;13.45;6.55;;;25.80;99.90;;;;;;5053502;28;20031;-69
2023/08/12 09:27:04;;;;;;;7.63;5.75;;;25.90;99.90;;;;;;5053214;28;20031;-69
2023/08/12 09:29:31;;;;;;;10.70;6.38;;;26.00;99.90;;;;;;5055383;28;20021;-69
2023/08/12 09:32:07;;;;;;;7.63;6.07;;;26.10;99.90;;;;;;5056890;28;20374;-69
2023/08/12 09:34:33;;;;;;;9.05;6.22;;;26.30;99.90;;;;;;5056682;28;20346;-69
2023/08/12 09:36:58;;;;;;;8.88;5.82;;;26.60;99.90;;;;;;5057017;28;20029;-68
2023/08/12 09:39:24;;;;;;;11.02;6.20;;;26.90;99.90;;;;;;5057001;28;20029;-70
2023/08/12 09:41:51;;;;;;;9.25;6.30;;;26.90;99.90;;;;;;5056817;28;20468;-70
2023/08/12 09:44:16;;;;;;;11.15;6.18;;;27.00;99.90;;;;;;5057027;28;20040;-69
2023/08/12 09:46:42;;;;;;;10.40;5.95;;;27.10;99.90;;;;;;5056462;28;20017;-69
2023/08/12 09:49:08;;;;;;;8.13;6.10;;;27.30;99.90;;;;;;5056624;28;20385;-70
2023/08/12 09:51:35;;;;;;;12.15;5.95;;;27.40;99.90;;;;;;5056699;28;20032;-69
2023/08/12 09:54:02;;;;;;;8.95;6.45;;;27.60;99.90;;;;;;5056670;28;20021;-69
2023/08/12 09:56:36;;;;;;;7.75;5.68;;;27.50;99.90;;;;;;5056684;28;20450;-69
2023/08/12 09:59:05;;;;;;;9.32;5.72;;;27.70;99.90;;;;;;5056737;28;20349;-69
2023/08/12 10:01:31;;;;;;;11.03;5.60;;;27.70;99.90;;;;;;5056560;28;20048;-69
2023/08/12 10:03:57;;;;;;;10.15;5.82;;;27.60;99.90;;;;;;5056485;28;20036;-68
2023/08/12 10:06:24;;;;;;;18.40;5.63;;;27.30;99.90;;;;;;5056316;28;20021;-68
2023/08/12 10:08:50;;;;;;;8.20;5.55;;;27.20;99.90;;;;;;5056515;28;20434;-69
2023/08/12 10:11:16;;;;;;;7.15;5.60;;;27.20;99.90;;;;;;5056479;28;20021;-69
2023/08/12 10:13:42;;;;;;;10.52;5.38;;;27.50;99.90;;;;;;5056402;28;20025;-69
2023/08/12 10:16:11;;;;;;;9.50;5.38;;;27.80;99.90;;;;;;5056408;28;20021;-69
2023/08/12 10:18:39;;;;;;;7.23;5.47;;;28.10;99.90;;;;;;5056017;28;20033;-69
2023/08/12 10:21:08;;;;;;;7.88;5.47;;;28.10;99.90;;;;;;5056647;28;20122;-69
2023/08/12 10:23:34;;;;;;;9.65;5.50;;;27.90;99.90;;;;;;5056407;28;20087;-69
2023/08/12 10:26:01;;;;;;;7.97;5.65;;;27.80;99.90;;;;;;5056291;28;20436;-69
2023/08/12 10:28:29;;;;;;;7.93;5.20;;;28.00;99.90;;;;;;5056268;28;20024;-70
2023/08/12 10:30:56;;;;;;;8.20;5.32;;;28.10;99.90;;;;;;5055998;28;20032;-70
2023/08/12 10:33:21;;;;;;;7.60;5.55;;;28.30;99.90;;;;;;5055949;28;20472;-69
2023/08/12 10:35:55;;;;;;;7.93;5.18;;;28.60;99.90;;;;;;5056224;28;20052;-70
2023/08/12 10:38:21;;;;;;;8.93;5.28;;;28.80;99.90;;;;;;5056107;28;20044;-70
2023/08/12 10:40:48;;;;;;;9.57;5.15;;;28.90;99.90;;;;;;5055220;28;20083;-69
2023/08/12 10:43:14;;;;;;;9.55;5.85;;;28.90;99.90;;;;;;5056258;28;20021;-69
2023/08/12 10:46:02;;;;;;;7.20;5.28;;;28.90;99.90;;;;;;5055831;28;20468;-69
2023/08/12 10:48:28;;;;;;;11.80;5.00;;;28.90;99.90;;;;;;5055208;28;20036;-69
2023/08/12 10:50:58;;;;;;;11.40;5.32;;;29.20;99.90;;;;;;5055779;28;20040;-69
2023/08/12 10:53:31;;;;;;;9.10;4.60;;;29.50;99.90;;;;;;5055823;28;20013;-68
2023/08/12 10:56:03;;;;;;;6.93;4.78;;;29.80;99.90;;;;;;5056050;28;20032;-69
2023/08/12 10:58:34;;;;;;;9.95;4.80;;;29.80;99.90;;;;;;5055795;28;20048;-68
2023/08/12 11:01:00;;;;;;;5.43;4.15;;;29.90;99.90;;;;;;5055900;28;20091;-69
2023/08/12 11:03:31;;;;;;;7.97;4.22;;;30.10;99.90;;;;;;5056121;28;20024;-69
2023/08/12 11:05:59;;;;;;;6.75;4.35;;;30.40;99.90;;;;;;5055848;28;20033;-68
2023/08/12 11:08:27;;;;;;;7.18;4.43;;;30.40;99.90;;;;;;5055506;28;20041;-69
2023/08/12 11:10:56;;;;;;;9.05;4.55;;;30.20;99.90;;;;;;5056003;28;20039;-69
2023/08/12 11:13:21;;;;;;;8.38;4.65;;;29.80;99.90;;;;;;5055650;28;20021;-69
2023/08/12 11:15:49;;;;;;;6.07;4.32;;;29.20;99.90;;;;;;5055271;28;20461;-68
2023/08/12 11:18:18;;;;;;;8.90;4.20;;;28.90;99.90;;;;;;5055492;28;20025;-68
2023/08/12 11:20:44;;;;;;;8.57;4.15;;;29.00;99.90;;;;;;5055121;28;20029;-69
2023/08/12 11:23:10;;;;;;;9.57;4.53;;;29.00;99.90;;;;;;5055189;28;20022;-67
2023/08/12 11:25:38;;;;;;;11.48;4.30;;;29.00;99.90;;;;;;5055477;28;20346;-68
2023/08/12 11:28:05;;;;;;;10.57;4.55;;;29.10;99.90;;;;;;5055121;28;20021;-67
2023/08/12 11:30:31;;;;;;;6.95;4.20;;;29.00;99.90;;;;;;5055574;28;20029;-68
2023/08/12 11:32:58;;;;;;;7.72;4.57;;;28.90;99.90;;;;;;5054611;28;20107;-68
2023/08/12 11:35:24;;;;;;;7.50;3.95;;;28.80;99.90;;;;;;5055218;28;20028;-68
2023/08/12 11:37:58;;;;;;;5.75;3.80;;;28.80;99.90;;;;;;5054937;28;20048;-69
2023/08/12 11:40:25;;;;;;;8.45;3.78;;;28.70;99.90;;;;;;5055408;28;20036;-69
2023/08/12 11:42:52;;;;;;;7.75;4.13;;;28.60;99.90;;;;;;5054842;28;20121;-68
2023/08/12 11:45:20;;;;;;;9.13;3.80;;;28.50;99.90;;;;;;5054982;28;20127;-69
2023/08/12 11:47:52;;;;;;;7.57;4.38;;;28.40;99.90;;;;;;5054501;28;20519;-67
2023/08/12 11:50:20;;;;;;;11.27;4.05;;;28.20;99.90;;;;;;5053218;28;20052;-67
2023/08/12 11:52:46;;;;;;;8.90;3.63;;;28.20;99.90;;;;;;5053726;28;20028;-67
2023/08/12 11:55:12;;;;;;;10.63;3.60;;;28.10;99.90;;;;;;5055050;28;20040;-68
2023/08/12 11:57:39;;;;;;;7.45;3.33;;;28.20;99.90;;;;;;5054183;28;20025;-68
2023/08/12 12:00:13;;;;;;;6.80;3.70;;;28.60;99.90;;;;;;5054307;28;20087;-68
2023/08/12 12:02:40;;;;;;;6.63;3.33;;;29.10;99.90;;;;;;5054458;28;20104;-68
2023/08/12 12:05:11;;;;;;;6.13;4.05;;;29.00;99.90;;;;;;5054395;28;20024;-67
2023/08/12 12:07:37;;;;;;;5.20;3.50;;;28.80;99.90;;;;;;5054324;28;20032;-67
2023/08/12 12:10:03;;;;;;;5.97;3.92;;;29.00;99.90;;;;;;5055116;28;20028;-68
2023/08/12 12:12:28;;;;;;;18.27;3.55;;;29.20;99.90;;;;;;5053993;28;20470;-68
2023/08/12 12:14:56;;;;;;;6.25;3.63;;;29.40;99.90;;;;;;5054193;28;20027;-69
2023/08/12 12:17:24;;;;;;;9.95;4.10;;;29.40;99.90;;;;;;5053558;28;20032;-68
2023/08/12 12:19:56;;;;;;;8.90;4.03;;;29.60;99.90;;;;;;5054589;28;20063;-68
2023/08/12 12:22:28;;;;;;;11.43;4.00;;;29.70;99.90;;;;;;5054367;28;20078;-68
2023/08/12 12:24:53;;;;;;;8.27;4.30;;;29.70;99.90;;;;;;5054556;28;20108;-69
2023/08/12 12:27:19;;;;;;;9.70;3.80;;;29.50;99.90;;;;;;5053940;28;20529;-68
2023/08/12 12:29:45;;;;;;;8.80;4.18;;;29.80;99.90;;;;;;5053993;28;20048;-68
2023/08/12 12:32:11;;;;;;;12.32;3.92;;;30.00;99.90;;;;;;5053889;28;20060;-68
2023/08/12 12:34:38;;;;;;;5.47;3.75;;;30.00;99.90;;;;;;5053771;28;20028;-67
2023/08/12 12:37:03;;;;;;;8.52;3.95;;;30.20;99.90;;;;;;5054131;28;20090;-68